sensor_id;sensor_type;location;lat;lon;timestamp;P1;durP1;ratioP1;P2;durP2;ratioP2
18838;SDS011;9548;56.920;14.804;2023-05-16T00:01:08;7.50;;;6.38;;
18838;SDS011;9548;56.920;14.804;2023-05-16T00:03:36;8.50;;;6.35;;
18838;SDS011;9548;56.920;14.804;2023-05-16T00:06:05;9.32;;;6.68;;
18838;SDS011;9548;56.920;14.804;2023-05-16T00:08:32;9.15;;;6.65;;
18838;SDS011;9548;56.920;14.804;2023-05-16T00:10:59;9.00;;;6.05;;
18838;SDS011;9548;56.920;14.804;2023-05-16T00:13:26;15.07;;;6.65;;
18838;SDS011;9548;56.920;14.804;2023-05-16T00:15:54;8.95;;;6.30;;
18838;SDS011;9548;56.920;14.804;2023-05-16T00:18:21;11.25;;;6.80;;
18838;SDS011;9548;56.920;14.804;2023-05-16T00:20:51;10.77;;;6.43;;
18838;SDS011;9548;56.920;14.804;2023-05-16T00:23:20;10.35;;;6.68;;
18838;SDS011;9548;56.920;14.804;2023-05-16T00:25:47;10.20;;;6.70;;
18838;SDS011;9548;56.920;14.804;2023-05-16T00:28:14;7.63;;;6.47;;
18838;SDS011;9548;56.920;14.804;2023-05-16T00:30:41;12.85;;;6.65;;
18838;SDS011;9548;56.920;14.804;2023-05-16T00:33:08;13.50;;;6.40;;
18838;SDS011;9548;56.920;14.804;2023-05-16T00:35:35;10.23;;;7.05;;
18838;SDS011;9548;56.920;14.804;2023-05-16T00:38:02;8.98;;;6.75;;
18838;SDS011;9548;56.920;14.804;2023-05-16T00:40:30;9.20;;;7.13;;
18838;SDS011;9548;56.920;14.804;2023-05-16T00:42:57;7.28;;;6.53;;
18838;SDS011;9548;56.920;14.804;2023-05-16T00:45:24;7.70;;;6.90;;
18838;SDS011;9548;56.920;14.804;2023-05-16T00:47:51;8.65;;;6.60;;
18838;SDS011;9548;56.920;14.804;2023-05-16T00:50:18;10.85;;;6.90;;
18838;SDS011;9548;56.920;14.804;2023-05-16T00:52:45;7.35;;;6.28;;
18838;SDS011;9548;56.920;14.804;2023-05-16T00:55:12;8.10;;;7.05;;
18838;SDS011;9548;56.920;14.804;2023-05-16T00:57:41;9.93;;;6.85;;
18838;SDS011;9548;56.920;14.804;2023-05-16T01:00:08;8.45;;;6.55;;
18838;SDS011;9548;56.920;14.804;2023-05-16T01:02:36;10.50;;;6.85;;
18838;SDS011;9548;56.920;14.804;2023-05-16T01:05:03;10.98;;;7.07;;
18838;SDS011;9548;56.920;14.804;2023-05-16T01:07:31;8.63;;;6.55;;
18838;SDS011;9548;56.920;14.804;2023-05-16T01:09:58;7.90;;;6.35;;
18838;SDS011;9548;56.920;14.804;2023-05-16T01:12:28;10.35;;;7.05;;
18838;SDS011;9548;56.920;14.804;2023-05-16T01:15:03;11.95;;;6.35;;
18838;SDS011;9548;56.920;14.804;2023-05-16T01:17:35;8.00;;;6.55;;
18838;SDS011;9548;56.920;14.804;2023-05-16T01:20:11;8.48;;;6.50;;
18838;SDS011;9548;56.920;14.804;2023-05-16T01:22:50;8.70;;;6.32;;
18838;SDS011;9548;56.920;14.804;2023-05-16T01:25:30;8.32;;;6.10;;
18838;SDS011;9548;56.920;14.804;2023-05-16T01:28:05;6.75;;;5.85;;
18838;SDS011;9548;56.920;14.804;2023-05-16T01:30:37;11.68;;;6.47;;
18838;SDS011;9548;56.920;14.804;2023-05-16T01:33:05;12.13;;;6.82;;
18838;SDS011;9548;56.920;14.804;2023-05-16T01:35:32;7.20;;;6.03;;
18838;SDS011;9548;56.920;14.804;2023-05-16T01:38:04;7.45;;;6.47;;
18838;SDS011;9548;56.920;14.804;2023-05-16T01:40:50;8.38;;;6.63;;
18838;SDS011;9548;56.920;14.804;2023-05-16T01:43:24;8.55;;;6.45;;
18838;SDS011;9548;56.920;14.804;2023-05-16T01:45:57;10.23;;;6.82;;
18838;SDS011;9548;56.920;14.804;2023-05-16T01:48:29;7.85;;;5.93;;
18838;SDS011;9548;56.920;14.804;2023-05-16T01:51:00;6.28;;;5.68;;
18838;SDS011;9548;56.920;14.804;2023-05-16T01:53:31;7.20;;;5.65;;
18838;SDS011;9548;56.920;14.804;2023-05-16T01:56:02;9.10;;;5.90;;
18838;SDS011;9548;56.920;14.804;2023-05-16T01:58:32;6.53;;;5.65;;
18838;SDS011;9548;56.920;14.804;2023-05-16T02:00:59;7.40;;;5.90;;
18838;SDS011;9548;56.920;14.804;2023-05-16T02:03:28;7.43;;;6.22;;
18838;SDS011;9548;56.920;14.804;2023-05-16T02:05:55;6.68;;;5.88;;
18838;SDS011;9548;56.920;14.804;2023-05-16T02:08:22;7.63;;;5.90;;
18838;SDS011;9548;56.920;14.804;2023-05-16T02:10:50;8.93;;;6.05;;
18838;SDS011;9548;56.920;14.804;2023-05-16T02:13:17;7.13;;;5.53;;
18838;SDS011;9548;56.920;14.804;2023-05-16T02:15:45;8.07;;;6.22;;
18838;SDS011;9548;56.920;14.804;2023-05-16T02:18:12;8.95;;;6.43;;
18838;SDS011;9548;56.920;14.804;2023-05-16T02:20:39;8.50;;;6.10;;
18838;SDS011;9548;56.920;14.804;2023-05-16T02:23:06;7.93;;;6.40;;
18838;SDS011;9548;56.920;14.804;2023-05-16T02:25:33;7.78;;;6.63;;
18838;SDS011;9548;56.920;14.804;2023-05-16T02:28:00;8.98;;;7.15;;
18838;SDS011;9548;56.920;14.804;2023-05-16T02:30:27;9.45;;;7.80;;
18838;SDS011;9548;56.920;14.804;2023-05-16T02:32:55;10.20;;;8.88;;
18838;SDS011;9548;56.920;14.804;2023-05-16T02:35:22;10.27;;;8.35;;
18838;SDS011;9548;56.920;14.804;2023-05-16T02:37:49;9.85;;;8.55;;
18838;SDS011;9548;56.920;14.804;2023-05-16T02:40:16;11.73;;;8.95;;
18838;SDS011;9548;56.920;14.804;2023-05-16T02:42:42;10.70;;;8.73;;
18838;SDS011;9548;56.920;14.804;2023-05-16T02:45:09;10.38;;;8.32;;
18838;SDS011;9548;56.920;14.804;2023-05-16T02:47:36;11.65;;;9.70;;
18838;SDS011;9548;56.920;14.804;2023-05-16T02:50:06;15.48;;;8.80;;
18838;SDS011;9548;56.920;14.804;2023-05-16T02:52:33;12.20;;;9.30;;
18838;SDS011;9548;56.920;14.804;2023-05-16T02:55:00;12.32;;;9.40;;
18838;SDS011;9548;56.920;14.804;2023-05-16T02:57:27;12.82;;;9.50;;
18838;SDS011;9548;56.920;14.804;2023-05-16T02:59:54;12.63;;;10.00;;
18838;SDS011;9548;56.920;14.804;2023-05-16T03:02:21;12.25;;;10.13;;
18838;SDS011;9548;56.920;14.804;2023-05-16T03:04:48;14.38;;;10.25;;
18838;SDS011;9548;56.920;14.804;2023-05-16T03:07:16;13.50;;;10.35;;
18838;SDS011;9548;56.920;14.804;2023-05-16T03:09:43;16.00;;;10.38;;
18838;SDS011;9548;56.920;14.804;2023-05-16T03:12:09;13.45;;;10.43;;
18838;SDS011;9548;56.920;14.804;2023-05-16T03:14:36;14.88;;;10.45;;
18838;SDS011;9548;56.920;14.804;2023-05-16T03:17:03;13.70;;;10.48;;
18838;SDS011;9548;56.920;14.804;2023-05-16T03:19:30;12.95;;;10.43;;
18838;SDS011;9548;56.920;14.804;2023-05-16T03:21:57;12.27;;;9.95;;
18838;SDS011;9548;56.920;14.804;2023-05-16T03:24:25;13.68;;;10.00;;
18838;SDS011;9548;56.920;14.804;2023-05-16T03:26:52;15.13;;;9.95;;
18838;SDS011;9548;56.920;14.804;2023-05-16T03:29:19;12.15;;;9.68;;
18838;SDS011;9548;56.920;14.804;2023-05-16T03:31:46;11.32;;;8.75;;
18838;SDS011;9548;56.920;14.804;2023-05-16T03:34:13;10.57;;;9.13;;
18838;SDS011;9548;56.920;14.804;2023-05-16T03:36:40;13.05;;;9.35;;
18838;SDS011;9548;56.920;14.804;2023-05-16T03:39:07;11.77;;;9.50;;
18838;SDS011;9548;56.920;14.804;2023-05-16T03:41:35;11.38;;;9.07;;
18838;SDS011;9548;56.920;14.804;2023-05-16T03:44:02;10.98;;;8.70;;
18838;SDS011;9548;56.920;14.804;2023-05-16T03:46:29;12.88;;;8.77;;
18838;SDS011;9548;56.920;14.804;2023-05-16T03:48:56;10.15;;;8.63;;
18838;SDS011;9548;56.920;14.804;2023-05-16T03:51:23;11.55;;;9.35;;
18838;SDS011;9548;56.920;14.804;2023-05-16T03:53:50;9.88;;;8.43;;
18838;SDS011;9548;56.920;14.804;2023-05-16T03:56:17;14.25;;;8.55;;
18838;SDS011;9548;56.920;14.804;2023-05-16T03:58:45;10.35;;;8.25;;
18838;SDS011;9548;56.920;14.804;2023-05-16T04:01:12;10.48;;;8.27;;
18838;SDS011;9548;56.920;14.804;2023-05-16T04:03:39;11.25;;;8.68;;
18838;SDS011;9548;56.920;14.804;2023-05-16T04:06:06;11.23;;;8.80;;
18838;SDS011;9548;56.920;14.804;2023-05-16T04:08:33;10.68;;;8.57;;
18838;SDS011;9548;56.920;14.804;2023-05-16T04:11:00;10.57;;;8.85;;
18838;SDS011;9548;56.920;14.804;2023-05-16T04:13:27;9.93;;;8.73;;
18838;SDS011;9548;56.920;14.804;2023-05-16T04:15:55;12.07;;;9.63;;
18838;SDS011;9548;56.920;14.804;2023-05-16T04:18:22;10.32;;;8.60;;
18838;SDS011;9548;56.920;14.804;2023-05-16T04:20:48;11.90;;;8.68;;
18838;SDS011;9548;56.920;14.804;2023-05-16T04:23:15;10.50;;;8.32;;
18838;SDS011;9548;56.920;14.804;2023-05-16T04:25:42;11.35;;;8.40;;
18838;SDS011;9548;56.920;14.804;2023-05-16T04:28:10;11.75;;;8.95;;
18838;SDS011;9548;56.920;14.804;2023-05-16T04:30:37;10.40;;;8.57;;
18838;SDS011;9548;56.920;14.804;2023-05-16T04:33:05;12.68;;;8.93;;
18838;SDS011;9548;56.920;14.804;2023-05-16T04:35:32;11.45;;;9.15;;
18838;SDS011;9548;56.920;14.804;2023-05-16T04:37:59;17.27;;;9.00;;
18838;SDS011;9548;56.920;14.804;2023-05-16T04:40:26;12.73;;;9.23;;
18838;SDS011;9548;56.920;14.804;2023-05-16T04:42:53;12.98;;;9.27;;
18838;SDS011;9548;56.920;14.804;2023-05-16T04:45:20;12.27;;;9.10;;
18838;SDS011;9548;56.920;14.804;2023-05-16T04:47:47;12.52;;;9.25;;
18838;SDS011;9548;56.920;14.804;2023-05-16T04:50:15;10.93;;;8.63;;
18838;SDS011;9548;56.920;14.804;2023-05-16T04:52:42;11.95;;;9.38;;
18838;SDS011;9548;56.920;14.804;2023-05-16T04:55:09;10.63;;;9.10;;
18838;SDS011;9548;56.920;14.804;2023-05-16T04:57:36;11.88;;;9.15;;
18838;SDS011;9548;56.920;14.804;2023-05-16T05:00:05;12.38;;;8.38;;
18838;SDS011;9548;56.920;14.804;2023-05-16T05:02:34;13.13;;;9.07;;
18838;SDS011;9548;56.920;14.804;2023-05-16T05:05:02;9.38;;;7.97;;
18838;SDS011;9548;56.920;14.804;2023-05-16T05:07:30;8.98;;;7.97;;
18838;SDS011;9548;56.920;14.804;2023-05-16T05:09:57;9.30;;;8.10;;
18838;SDS011;9548;56.920;14.804;2023-05-16T05:12:24;10.20;;;8.50;;
18838;SDS011;9548;56.920;14.804;2023-05-16T05:14:52;10.80;;;8.48;;
18838;SDS011;9548;56.920;14.804;2023-05-16T05:17:19;10.45;;;8.52;;
18838;SDS011;9548;56.920;14.804;2023-05-16T05:19:46;10.70;;;7.63;;
18838;SDS011;9548;56.920;14.804;2023-05-16T05:22:13;10.32;;;8.48;;
18838;SDS011;9548;56.920;14.804;2023-05-16T05:24:42;9.82;;;7.80;;
18838;SDS011;9548;56.920;14.804;2023-05-16T05:27:08;10.18;;;8.10;;
18838;SDS011;9548;56.920;14.804;2023-05-16T05:29:35;11.30;;;8.05;;
18838;SDS011;9548;56.920;14.804;2023-05-16T05:32:02;9.27;;;7.50;;
18838;SDS011;9548;56.920;14.804;2023-05-16T05:34:30;11.40;;;7.60;;
18838;SDS011;9548;56.920;14.804;2023-05-16T05:36:57;9.82;;;7.75;;
18838;SDS011;9548;56.920;14.804;2023-05-16T05:39:24;10.30;;;7.40;;
18838;SDS011;9548;56.920;14.804;2023-05-16T05:41:52;8.85;;;7.68;;
18838;SDS011;9548;56.920;14.804;2023-05-16T05:44:19;10.98;;;6.95;;
18838;SDS011;9548;56.920;14.804;2023-05-16T05:46:46;9.32;;;7.72;;
18838;SDS011;9548;56.920;14.804;2023-05-16T05:49:13;9.23;;;7.78;;
18838;SDS011;9548;56.920;14.804;2023-05-16T05:51:40;13.02;;;7.97;;
18838;SDS011;9548;56.920;14.804;2023-05-16T05:54:07;8.27;;;6.97;;
18838;SDS011;9548;56.920;14.804;2023-05-16T05:56:33;9.68;;;8.13;;
18838;SDS011;9548;56.920;14.804;2023-05-16T05:59:02;10.38;;;7.80;;
18838;SDS011;9548;56.920;14.804;2023-05-16T06:01:29;12.27;;;7.80;;
18838;SDS011;9548;56.920;14.804;2023-05-16T06:03:55;10.07;;;7.65;;
18838;SDS011;9548;56.920;14.804;2023-05-16T06:06:22;8.32;;;7.43;;
18838;SDS011;9548;56.920;14.804;2023-05-16T06:08:49;8.25;;;6.72;;
18838;SDS011;9548;56.920;14.804;2023-05-16T06:11:17;11.23;;;7.60;;
18838;SDS011;9548;56.920;14.804;2023-05-16T06:13:44;11.98;;;7.85;;
18838;SDS011;9548;56.920;14.804;2023-05-16T06:16:12;9.70;;;7.72;;
18838;SDS011;9548;56.920;14.804;2023-05-16T06:18:39;9.07;;;7.57;;
18838;SDS011;9548;56.920;14.804;2023-05-16T06:21:06;10.25;;;8.07;;
18838;SDS011;9548;56.920;14.804;2023-05-16T06:23:33;10.43;;;8.32;;
18838;SDS011;9548;56.920;14.804;2023-05-16T06:26:00;11.27;;;8.25;;
18838;SDS011;9548;56.920;14.804;2023-05-16T06:28:27;8.82;;;7.50;;
18838;SDS011;9548;56.920;14.804;2023-05-16T06:30:54;11.15;;;8.07;;
18838;SDS011;9548;56.920;14.804;2023-05-16T06:33:22;11.40;;;8.43;;
18838;SDS011;9548;56.920;14.804;2023-05-16T06:35:49;10.65;;;7.85;;
18838;SDS011;9548;56.920;14.804;2023-05-16T06:38:16;9.95;;;7.70;;
18838;SDS011;9548;56.920;14.804;2023-05-16T06:40:44;8.43;;;7.40;;
18838;SDS011;9548;56.920;14.804;2023-05-16T06:43:11;9.40;;;8.00;;
18838;SDS011;9548;56.920;14.804;2023-05-16T06:45:37;9.85;;;7.93;;
18838;SDS011;9548;56.920;14.804;2023-05-16T06:48:06;10.90;;;8.25;;
18838;SDS011;9548;56.920;14.804;2023-05-16T06:50:34;11.88;;;7.80;;
18838;SDS011;9548;56.920;14.804;2023-05-16T06:53:01;11.30;;;7.45;;
18838;SDS011;9548;56.920;14.804;2023-05-16T06:55:29;11.90;;;7.93;;
18838;SDS011;9548;56.920;14.804;2023-05-16T06:57:56;10.45;;;7.55;;
18838;SDS011;9548;56.920;14.804;2023-05-16T07:00:23;8.65;;;7.38;;
18838;SDS011;9548;56.920;14.804;2023-05-16T07:02:50;10.02;;;8.15;;
18838;SDS011;9548;56.920;14.804;2023-05-16T07:05:17;9.70;;;7.82;;
18838;SDS011;9548;56.920;14.804;2023-05-16T07:07:46;10.02;;;7.32;;
18838;SDS011;9548;56.920;14.804;2023-05-16T07:10:13;9.38;;;8.23;;
18838;SDS011;9548;56.920;14.804;2023-05-16T07:12:41;9.55;;;8.27;;
18838;SDS011;9548;56.920;14.804;2023-05-16T07:15:08;9.32;;;7.68;;
18838;SDS011;9548;56.920;14.804;2023-05-16T07:17:36;10.68;;;7.55;;
18838;SDS011;9548;56.920;14.804;2023-05-16T07:20:03;10.20;;;7.40;;
18838;SDS011;9548;56.920;14.804;2023-05-16T07:22:30;7.75;;;6.88;;
18838;SDS011;9548;56.920;14.804;2023-05-16T07:24:59;12.70;;;7.47;;
18838;SDS011;9548;56.920;14.804;2023-05-16T07:27:25;10.55;;;7.60;;
18838;SDS011;9548;56.920;14.804;2023-05-16T07:29:52;8.40;;;7.43;;
18838;SDS011;9548;56.920;14.804;2023-05-16T07:32:19;11.27;;;7.57;;
18838;SDS011;9548;56.920;14.804;2023-05-16T07:34:46;8.93;;;7.60;;
18838;SDS011;9548;56.920;14.804;2023-05-16T07:37:13;9.05;;;7.70;;
18838;SDS011;9548;56.920;14.804;2023-05-16T07:39:40;11.57;;;7.28;;
18838;SDS011;9548;56.920;14.804;2023-05-16T07:42:09;11.20;;;6.68;;
18838;SDS011;9548;56.920;14.804;2023-05-16T07:44:35;6.53;;;5.82;;
18838;SDS011;9548;56.920;14.804;2023-05-16T07:47:02;11.30;;;6.70;;
18838;SDS011;9548;56.920;14.804;2023-05-16T07:49:30;8.50;;;6.60;;
18838;SDS011;9548;56.920;14.804;2023-05-16T07:51:57;9.85;;;6.35;;
18838;SDS011;9548;56.920;14.804;2023-05-16T07:54:24;7.82;;;6.18;;
18838;SDS011;9548;56.920;14.804;2023-05-16T07:56:51;6.18;;;5.45;;
18838;SDS011;9548;56.920;14.804;2023-05-16T07:59:19;8.07;;;5.78;;
18838;SDS011;9548;56.920;14.804;2023-05-16T08:01:46;7.93;;;5.70;;
18838;SDS011;9548;56.920;14.804;2023-05-16T08:04:13;8.82;;;5.68;;
18838;SDS011;9548;56.920;14.804;2023-05-16T08:06:40;8.50;;;5.53;;
18838;SDS011;9548;56.920;14.804;2023-05-16T08:09:06;8.10;;;5.88;;
18838;SDS011;9548;56.920;14.804;2023-05-16T08:11:33;7.45;;;5.80;;
18838;SDS011;9548;56.920;14.804;2023-05-16T08:14:01;7.00;;;5.28;;
18838;SDS011;9548;56.920;14.804;2023-05-16T08:16:30;7.60;;;5.30;;
18838;SDS011;9548;56.920;14.804;2023-05-16T08:18:57;6.03;;;4.47;;
18838;SDS011;9548;56.920;14.804;2023-05-16T08:21:24;7.57;;;5.40;;
18838;SDS011;9548;56.920;14.804;2023-05-16T08:23:50;5.78;;;5.10;;
18838;SDS011;9548;56.920;14.804;2023-05-16T08:26:17;9.15;;;4.65;;
18838;SDS011;9548;56.920;14.804;2023-05-16T08:28:45;5.20;;;4.63;;
18838;SDS011;9548;56.920;14.804;2023-05-16T08:31:13;5.20;;;4.70;;
18838;SDS011;9548;56.920;14.804;2023-05-16T08:33:41;5.72;;;4.90;;
18838;SDS011;9548;56.920;14.804;2023-05-16T08:36:08;5.68;;;5.00;;
18838;SDS011;9548;56.920;14.804;2023-05-16T08:38:35;7.45;;;5.13;;
18838;SDS011;9548;56.920;14.804;2023-05-16T08:41:02;4.50;;;4.10;;
18838;SDS011;9548;56.920;14.804;2023-05-16T08:43:30;5.28;;;4.28;;
18838;SDS011;9548;56.920;14.804;2023-05-16T08:45:59;8.50;;;4.53;;
18838;SDS011;9548;56.920;14.804;2023-05-16T08:48:26;9.77;;;4.38;;
18838;SDS011;9548;56.920;14.804;2023-05-16T08:50:55;7.97;;;4.10;;
18838;SDS011;9548;56.920;14.804;2023-05-16T08:53:23;5.95;;;4.00;;
18838;SDS011;9548;56.920;14.804;2023-05-16T08:55:56;5.80;;;3.80;;
18838;SDS011;9548;56.920;14.804;2023-05-16T08:58:24;9.00;;;4.13;;
18838;SDS011;9548;56.920;14.804;2023-05-16T09:00:52;5.63;;;3.55;;
18838;SDS011;9548;56.920;14.804;2023-05-16T09:03:19;6.45;;;4.03;;
18838;SDS011;9548;56.920;14.804;2023-05-16T09:05:49;6.22;;;3.75;;
18838;SDS011;9548;56.920;14.804;2023-05-16T09:08:18;5.20;;;3.97;;
18838;SDS011;9548;56.920;14.804;2023-05-16T09:10:45;3.63;;;3.33;;
18838;SDS011;9548;56.920;14.804;2023-05-16T09:13:12;7.00;;;3.70;;
18838;SDS011;9548;56.920;14.804;2023-05-16T09:15:39;6.97;;;3.85;;
18838;SDS011;9548;56.920;14.804;2023-05-16T09:18:10;7.30;;;4.40;;
18838;SDS011;9548;56.920;14.804;2023-05-16T09:20:41;6.50;;;4.28;;
18838;SDS011;9548;56.920;14.804;2023-05-16T09:23:10;4.80;;;4.18;;
18838;SDS011;9548;56.920;14.804;2023-05-16T09:25:39;8.40;;;4.65;;
18838;SDS011;9548;56.920;14.804;2023-05-16T09:28:09;4.68;;;4.03;;
18838;SDS011;9548;56.920;14.804;2023-05-16T09:30:37;4.82;;;3.97;;
18838;SDS011;9548;56.920;14.804;2023-05-16T09:33:05;4.32;;;3.92;;
18838;SDS011;9548;56.920;14.804;2023-05-16T09:35:32;4.85;;;3.67;;
18838;SDS011;9548;56.920;14.804;2023-05-16T09:37:59;5.70;;;4.00;;
18838;SDS011;9548;56.920;14.804;2023-05-16T09:40:26;4.05;;;3.45;;
18838;SDS011;9548;56.920;14.804;2023-05-16T09:43:00;3.95;;;3.55;;
18838;SDS011;9548;56.920;14.804;2023-05-16T09:45:29;4.07;;;3.60;;
18838;SDS011;9548;56.920;14.804;2023-05-16T09:47:59;4.28;;;3.88;;
18838;SDS011;9548;56.920;14.804;2023-05-16T09:50:28;3.80;;;3.50;;
18838;SDS011;9548;56.920;14.804;2023-05-16T09:52:58;4.03;;;3.67;;
18838;SDS011;9548;56.920;14.804;2023-05-16T09:55:25;4.50;;;3.90;;
18838;SDS011;9548;56.920;14.804;2023-05-16T09:57:52;5.43;;;4.20;;
18838;SDS011;9548;56.920;14.804;2023-05-16T10:00:20;4.35;;;3.80;;
18838;SDS011;9548;56.920;14.804;2023-05-16T10:02:47;4.35;;;3.95;;
18838;SDS011;9548;56.920;14.804;2023-05-16T10:05:15;4.35;;;3.95;;
18838;SDS011;9548;56.920;14.804;2023-05-16T10:07:42;5.57;;;4.13;;
18838;SDS011;9548;56.920;14.804;2023-05-16T10:10:10;6.82;;;3.95;;
18838;SDS011;9548;56.920;14.804;2023-05-16T10:12:38;5.20;;;4.03;;
18838;SDS011;9548;56.920;14.804;2023-05-16T10:15:07;4.28;;;3.72;;
18838;SDS011;9548;56.920;14.804;2023-05-16T10:17:37;4.07;;;3.65;;
18838;SDS011;9548;56.920;14.804;2023-05-16T10:20:06;4.05;;;3.75;;
18838;SDS011;9548;56.920;14.804;2023-05-16T10:22:39;4.20;;;3.70;;
18838;SDS011;9548;56.920;14.804;2023-05-16T10:25:10;3.80;;;3.50;;
18838;SDS011;9548;56.920;14.804;2023-05-16T10:27:42;4.18;;;3.80;;
18838;SDS011;9548;56.920;14.804;2023-05-16T10:30:10;4.18;;;3.78;;
18838;SDS011;9548;56.920;14.804;2023-05-16T10:32:39;4.57;;;3.78;;
18838;SDS011;9548;56.920;14.804;2023-05-16T10:35:06;7.30;;;4.57;;
18838;SDS011;9548;56.920;14.804;2023-05-16T10:37:34;5.68;;;4.18;;
18838;SDS011;9548;56.920;14.804;2023-05-16T10:40:02;4.68;;;4.10;;
18838;SDS011;9548;56.920;14.804;2023-05-16T10:42:32;4.80;;;4.32;;
18838;SDS011;9548;56.920;14.804;2023-05-16T10:45:07;7.80;;;4.57;;
18838;SDS011;9548;56.920;14.804;2023-05-16T10:47:34;6.15;;;4.90;;
18838;SDS011;9548;56.920;14.804;2023-05-16T10:50:03;7.43;;;4.90;;
18838;SDS011;9548;56.920;14.804;2023-05-16T10:52:32;6.30;;;4.50;;
18838;SDS011;9548;56.920;14.804;2023-05-16T10:55:01;6.25;;;4.90;;
18838;SDS011;9548;56.920;14.804;2023-05-16T10:57:29;5.30;;;4.80;;
18838;SDS011;9548;56.920;14.804;2023-05-16T11:00:00;7.25;;;5.15;;
18838;SDS011;9548;56.920;14.804;2023-05-16T11:02:39;5.22;;;4.22;;
18838;SDS011;9548;56.920;14.804;2023-05-16T11:05:08;6.15;;;4.80;;
18838;SDS011;9548;56.920;14.804;2023-05-16T11:07:42;5.20;;;4.40;;
18838;SDS011;9548;56.920;14.804;2023-05-16T11:10:14;4.35;;;4.03;;
18838;SDS011;9548;56.920;14.804;2023-05-16T11:12:42;7.97;;;3.80;;
18838;SDS011;9548;56.920;14.804;2023-05-16T11:15:19;6.13;;;3.83;;
18838;SDS011;9548;56.920;14.804;2023-05-16T11:17:48;6.55;;;3.80;;
18838;SDS011;9548;56.920;14.804;2023-05-16T11:20:26;4.40;;;4.00;;
18838;SDS011;9548;56.920;14.804;2023-05-16T11:25:45;9.23;;;4.50;;
18838;SDS011;9548;56.920;14.804;2023-05-16T11:28:14;5.18;;;4.68;;
18838;SDS011;9548;56.920;14.804;2023-05-16T11:30:43;5.55;;;4.68;;
18838;SDS011;9548;56.920;14.804;2023-05-16T11:33:12;4.43;;;4.03;;
18838;SDS011;9548;56.920;14.804;2023-05-16T11:35:41;5.25;;;4.05;;
18838;SDS011;9548;56.920;14.804;2023-05-16T11:38:11;5.88;;;4.47;;
18838;SDS011;9548;56.920;14.804;2023-05-16T11:40:43;4.38;;;3.97;;
18838;SDS011;9548;56.920;14.804;2023-05-16T11:43:10;9.77;;;4.05;;
18838;SDS011;9548;56.920;14.804;2023-05-16T11:45:43;6.93;;;4.57;;
18838;SDS011;9548;56.920;14.804;2023-05-16T11:48:10;5.03;;;4.15;;
18838;SDS011;9548;56.920;14.804;2023-05-16T11:50:37;6.40;;;4.28;;
18838;SDS011;9548;56.920;14.804;2023-05-16T11:53:06;4.53;;;4.13;;
18838;SDS011;9548;56.920;14.804;2023-05-16T11:55:33;4.32;;;4.03;;
18838;SDS011;9548;56.920;14.804;2023-05-16T11:58:01;4.88;;;4.00;;
18838;SDS011;9548;56.920;14.804;2023-05-16T12:00:28;6.10;;;4.27;;
18838;SDS011;9548;56.920;14.804;2023-05-16T12:02:59;4.05;;;3.65;;
18838;SDS011;9548;56.920;14.804;2023-05-16T12:05:28;5.43;;;3.80;;
18838;SDS011;9548;56.920;14.804;2023-05-16T12:07:56;7.93;;;3.83;;
18838;SDS011;9548;56.920;14.804;2023-05-16T12:10:25;4.43;;;4.03;;
18838;SDS011;9548;56.920;14.804;2023-05-16T12:12:52;6.10;;;3.40;;
18838;SDS011;9548;56.920;14.804;2023-05-16T12:15:19;3.55;;;3.22;;
18838;SDS011;9548;56.920;14.804;2023-05-16T12:17:46;5.00;;;4.05;;
18838;SDS011;9548;56.920;14.804;2023-05-16T12:20:14;4.22;;;3.10;;
18838;SDS011;9548;56.920;14.804;2023-05-16T12:22:42;5.82;;;3.47;;
18838;SDS011;9548;56.920;14.804;2023-05-16T12:25:27;6.18;;;3.92;;
18838;SDS011;9548;56.920;14.804;2023-05-16T12:27:56;4.30;;;3.90;;
18838;SDS011;9548;56.920;14.804;2023-05-16T12:30:25;4.97;;;3.78;;
18838;SDS011;9548;56.920;14.804;2023-05-16T12:32:56;5.18;;;4.68;;
18838;SDS011;9548;56.920;14.804;2023-05-16T12:35:23;4.70;;;4.20;;
18838;SDS011;9548;56.920;14.804;2023-05-16T12:37:51;7.75;;;4.22;;
18838;SDS011;9548;56.920;14.804;2023-05-16T12:40:18;5.10;;;4.60;;
18838;SDS011;9548;56.920;14.804;2023-05-16T12:42:49;5.28;;;4.78;;
18838;SDS011;9548;56.920;14.804;2023-05-16T12:45:16;6.45;;;4.72;;
18838;SDS011;9548;56.920;14.804;2023-05-16T12:47:43;4.72;;;4.32;;
18838;SDS011;9548;56.920;14.804;2023-05-16T12:50:11;4.80;;;4.40;;
18838;SDS011;9548;56.920;14.804;2023-05-16T12:52:47;5.75;;;4.97;;
18838;SDS011;9548;56.920;14.804;2023-05-16T12:55:15;5.03;;;4.60;;
18838;SDS011;9548;56.920;14.804;2023-05-16T12:57:42;5.00;;;4.45;;
18838;SDS011;9548;56.920;14.804;2023-05-16T13:00:13;5.53;;;5.03;;
18838;SDS011;9548;56.920;14.804;2023-05-16T13:02:43;5.70;;;4.50;;
18838;SDS011;9548;56.920;14.804;2023-05-16T13:05:11;7.32;;;4.90;;
18838;SDS011;9548;56.920;14.804;2023-05-16T13:07:38;4.82;;;4.43;;
18838;SDS011;9548;56.920;14.804;2023-05-16T13:10:05;7.30;;;4.60;;
18838;SDS011;9548;56.920;14.804;2023-05-16T13:12:34;5.88;;;4.78;;
18838;SDS011;9548;56.920;14.804;2023-05-16T13:15:01;5.53;;;4.60;;
18838;SDS011;9548;56.920;14.804;2023-05-16T13:17:30;4.68;;;4.28;;
18838;SDS011;9548;56.920;14.804;2023-05-16T13:19:57;5.78;;;4.53;;
18838;SDS011;9548;56.920;14.804;2023-05-16T13:22:24;6.88;;;4.70;;
18838;SDS011;9548;56.920;14.804;2023-05-16T13:24:51;8.65;;;4.38;;
18838;SDS011;9548;56.920;14.804;2023-05-16T13:27:18;7.00;;;5.22;;
18838;SDS011;9548;56.920;14.804;2023-05-16T13:29:45;5.15;;;4.50;;
18838;SDS011;9548;56.920;14.804;2023-05-16T13:32:12;9.82;;;4.57;;
18838;SDS011;9548;56.920;14.804;2023-05-16T13:34:40;6.53;;;5.13;;
18838;SDS011;9548;56.920;14.804;2023-05-16T13:37:07;6.43;;;5.25;;
18838;SDS011;9548;56.920;14.804;2023-05-16T13:39:34;6.40;;;4.57;;
18838;SDS011;9548;56.920;14.804;2023-05-16T13:42:01;5.75;;;4.78;;
18838;SDS011;9548;56.920;14.804;2023-05-16T13:44:28;4.78;;;4.22;;
18838;SDS011;9548;56.920;14.804;2023-05-16T13:46:55;5.47;;;4.40;;
18838;SDS011;9548;56.920;14.804;2023-05-16T13:49:22;7.97;;;4.38;;
18838;SDS011;9548;56.920;14.804;2023-05-16T13:51:51;5.18;;;4.65;;
18838;SDS011;9548;56.920;14.804;2023-05-16T13:54:18;7.25;;;4.00;;
18838;SDS011;9548;56.920;14.804;2023-05-16T13:56:45;4.65;;;3.88;;
18838;SDS011;9548;56.920;14.804;2023-05-16T13:59:12;6.00;;;3.78;;
18838;SDS011;9548;56.920;14.804;2023-05-16T14:01:39;5.30;;;3.60;;
18838;SDS011;9548;56.920;14.804;2023-05-16T14:04:06;7.68;;;3.90;;
18838;SDS011;9548;56.920;14.804;2023-05-16T14:06:33;8.50;;;3.67;;
18838;SDS011;9548;56.920;14.804;2023-05-16T14:09:02;6.30;;;3.72;;
18838;SDS011;9548;56.920;14.804;2023-05-16T14:11:30;3.90;;;3.50;;
18838;SDS011;9548;56.920;14.804;2023-05-16T14:13:57;5.00;;;3.45;;
18838;SDS011;9548;56.920;14.804;2023-05-16T14:16:24;7.38;;;3.20;;
18838;SDS011;9548;56.920;14.804;2023-05-16T14:18:51;5.43;;;3.35;;
18838;SDS011;9548;56.920;14.804;2023-05-16T14:21:18;6.28;;;3.10;;
18838;SDS011;9548;56.920;14.804;2023-05-16T14:23:44;6.07;;;3.10;;
18838;SDS011;9548;56.920;14.804;2023-05-16T14:26:14;7.97;;;2.72;;
18838;SDS011;9548;56.920;14.804;2023-05-16T14:28:42;5.32;;;2.60;;
18838;SDS011;9548;56.920;14.804;2023-05-16T14:31:09;6.40;;;3.30;;
18838;SDS011;9548;56.920;14.804;2023-05-16T14:33:36;4.22;;;2.72;;
18838;SDS011;9548;56.920;14.804;2023-05-16T14:36:05;5.95;;;2.70;;
18838;SDS011;9548;56.920;14.804;2023-05-16T14:38:32;4.47;;;2.88;;
18838;SDS011;9548;56.920;14.804;2023-05-16T14:40:59;5.20;;;2.78;;
18838;SDS011;9548;56.920;14.804;2023-05-16T14:43:28;5.97;;;3.10;;
18838;SDS011;9548;56.920;14.804;2023-05-16T14:45:55;5.65;;;3.05;;
18838;SDS011;9548;56.920;14.804;2023-05-16T14:48:22;9.48;;;3.17;;
18838;SDS011;9548;56.920;14.804;2023-05-16T14:50:48;10.73;;;3.20;;